Latest Coastal Weather Observations for South Johnstone

IDQ60701

Issued at 8:25 am EST Wednesday 24 September 2014 (issued every 10 minutes, with the page automatically refreshed every 10 minutes)

About coastal observations | Map of coastal stations | Coastal observations for QLD | Marine services | Other Formats
Station Details ID: 032037 Name: SOUTH JOHNSTONE EXP STN Lat: -17.61 Lon: 146.00 Height: 18.3 m
Data from the previous 72 hours. | See also: Recent months at South Johnstone
Date/Time
EST
Temp

°C
Wind Pressure Rain
since 9am
mm
Weather Cloud Vis
km
Sea
Height
m
Swell
Dir
 
Speed
knots
Gust
knots
hPa Trend Height
m
Period
s
Dir
24/08:00am 22.5 SW 6 7 1019.5 - 3.4 - - - - - - -
24/07:30am 21.7 WSW 5 7 1019.2 - 3.4 - - - - - - -
24/07:00am 21.0 CALM 0 0 1018.9 - 3.4 - - - - - - -
24/06:30am 20.6 CALM 0 0 1018.7 - 3.4 - - - - - - -
24/06:00am 20.5 CALM 0 0 1018.3 - 3.4 - - - - - - -
24/05:30am 20.7 WSW 4 6 1018.1 - 3.4 - - - - - - -
24/05:00am 20.7 WSW 5 7 1017.8 - 3.4 - - - - - - -
24/04:30am 20.8 W 2 4 1017.6 - 3.4 - - - - - - -
24/04:00am 20.7 WSW 3 6 1017.4 - 3.4 - - - - - - -
24/03:30am 20.7 WSW 4 5 1017.3 - 3.0 - - - - - - -
24/03:00am 20.9 W 3 5 1017.3 - 2.6 - - - - - - -
24/02:30am 20.9 WSW 4 6 1017.5 - 2.6 - - - - - - -
24/02:00am 21.1 WSW 3 5 1017.8 - 2.6 - - - - - - -
24/01:30am 21.3 WSW 0 4 1018.0 - 2.6 - - - - - - -
24/01:00am 21.4 WSW 3 4 1018.3 - 2.6 - - - - - - -
24/12:30am 21.7 CALM 0 0 1018.6 - 2.6 - - - - - - -
24/12:00am 22.2 NE 3 5 1018.7 - 2.6 - - - - - - -
 
Date/Time
EST
Temp

°C
Wind Pressure Rain
since 9am
mm
Weather Cloud Vis
km
Sea
Height
m
Swell
Dir
 
Speed
knots
Gust
knots
hPa Trend Height
m
Period
s
Dir
23/11:30pm 22.4 S 4 6 1019.2 - 0.0 - - - - - - -
23/11:00pm 21.9 SE 4 5 1019.3 - 0.0 - - - - - - -
23/10:30pm 22.2 SE 4 5 1019.5 - 0.0 - - - - - - -
23/10:00pm 22.1 SSE 4 5 1019.4 - 0.0 - - - - - - -
23/09:30pm 22.1 SE 4 7 1019.3 - 0.0 - - - - - - -
23/09:00pm 22.1 SE 4 6 1019.1 - 0.0 - - - - - - -
23/08:30pm 22.3 SE 5 7 1019.0 - 0.0 - - - - - - -
23/08:00pm 22.4 SE 4 6 1018.7 - 0.0 - - - - - - -
23/07:30pm 22.8 CALM 0 0 1018.5 - 0.0 - - - - - - -
23/07:00pm 23.2 ESE 5 7 1018.1 - 0.0 - - - - - - -
23/06:30pm 23.5 ESE 5 9 1017.8 - 0.0 - - - - - - -
23/06:00pm 24.0 ESE 6 10 1017.5 - 0.0 - - - - - - -
23/05:30pm 24.5 ESE 8 12 1017.4 - 0.0 - - - - - - -
23/05:00pm 24.9 ESE 8 13 1017.1 - 0.0 - - - - - - -
23/04:30pm 24.9 SE 10 16 1017.0 - 0.0 - - - - - - -
23/04:00pm 25.5 ESE 9 13 1016.9 - 0.0 - - - - - - -
23/03:30pm 26.2 E 10 14 1016.9 - 0.0 - - - - - - -
23/03:00pm 26.3 SE 11 16 1016.7 - 0.0 - - - - - - -
23/02:30pm 25.5 SE 10 14 1016.9 - 0.0 - - - - - - -
23/02:00pm 25.8 ESE 9 13 1017.2 - 0.0 - - - - - - -
23/01:30pm 26.2 ESE 9 16 1017.4 - 0.0 - - - - - - -
23/01:00pm 26.3 SE 9 14 1017.7 - 0.0 - - - - - - -
23/12:30pm 26.8 ESE 9 14 1018.0 - 0.0 - - - - - - -
23/12:00pm 26.1 ESE 8 14 1018.4 - 0.0 - - - - - - -
23/11:30am 25.9 ESE 9 14 1018.9 - 0.0 - - - - - - -
23/11:00am 26.1 ESE 11 15 1019.2 - 0.0 - - - - - - -
23/10:30am 25.2 ESE 10 14 1019.3 - 0.0 - - - - - - -
23/10:00am 25.3 E 10 14 1019.6 - 0.0 - - - - - - -
23/09:30am 24.5 ESE 9 13 1019.5 - 0.0 - - - - - - -
23/09:00am 24.5 ESE 8 12 1019.3 - 5.0 - - - - - - -
23/08:30am 24.4 E 7 12 1019.2 - 5.0 - - - - - - -
23/08:00am 23.3 ESE 3 6 1019.0 - 5.0 - - - - - - -
23/07:30am 21.9 E 1 5 1018.5 - 5.0 - - - - - - -
23/07:00am 21.4 CALM 0 0 1018.0 - 5.0 - - - - - - -
23/06:30am 21.2 CALM 0 0 1017.6 - 5.0 - - - - - - -
23/06:00am 21.3 CALM 0 0 1017.3 - 5.0 - - - - - - -
23/05:30am 21.5 SSE 4 7 1017.0 - 4.6 - - - - - - -
23/05:00am 20.9 WSW 2 5 1016.8 - 3.0 - - - - - - -
23/04:30am 20.8 CALM 0 0 1016.6 - 3.0 - - - - - - -
23/04:00am 20.8 NW 2 4 1016.4 - 3.0 - - - - - - -
23/03:30am 20.8 WSW 4 5 1016.2 - 3.0 - - - - - - -
23/03:00am 20.9 CALM 0 0 1016.0 - 3.0 - - - - - - -
23/02:30am 20.8 SE 1 5 1016.4 - 3.0 - - - - - - -
23/02:00am 21.0 CALM 0 0 1016.4 - 3.0 - - - - - - -
23/01:30am 21.4 E 1 3 1016.7 - 3.0 - - - - - - -
23/01:00am 21.4 ESE 4 5 1016.9 - 3.0 - - - - - - -
23/12:30am 21.2 SE 4 6 1017.0 - 3.0 - - - - - - -
23/12:00am 21.5 SE 5 6 1017.4 - 3.0 - - - - - - -
 
Date/Time
EST
Temp

°C
Wind Pressure Rain
since 9am
mm
Weather Cloud Vis
km
Sea
Height
m
Swell
Dir
 
Speed
knots
Gust
knots
hPa Trend Height
m
Period
s
Dir
22/11:30pm 21.7 CALM 0 2 1017.8 - 3.0 - - - - - - -
22/11:00pm 21.7 SSE 3 5 1018.0 - 3.0 - - - - - - -
22/10:30pm 21.3 SSE 3 5 1018.0 - 3.0 - - - - - - -
22/10:00pm 21.8 SSE 3 5 1018.0 - 2.8 - - - - - - -
22/09:30pm 21.8 SSE 4 7 1018.0 - 2.8 - - - - - - -
22/09:00pm 22.7 SSE 5 7 1017.8 - 1.4 - - - - - - -
22/08:30pm 22.1 SSE 3 4 1017.6 - 1.4 - - - - - - -
22/08:00pm 21.6 SSE 4 5 1017.4 - 1.4 - - - - - - -
22/07:30pm 22.1 SE 4 5 1017.0 - 1.4 - - - - - - -
22/07:00pm 22.6 SE 4 5 1016.7 - 1.4 - - - - - - -
22/06:30pm 22.9 SSE 4 5 1016.2 - 1.4 - - - - - - -
22/06:00pm 23.6 ESE 6 9 1015.8 - 1.4 - - - - - - -
22/05:30pm 24.2 E 8 10 1015.5 - 1.4 - - - - - - -
22/05:00pm 24.7 E 7 10 1015.3 - 1.4 - - - - - - -
22/04:30pm 25.4 E 7 11 1015.1 - 1.4 - - - - - - -
22/04:00pm 26.2 E 8 11 1014.8 - 1.4 - - - - - - -
22/03:30pm 25.8 ESE 8 14 1014.8 - 1.4 - - - - - - -
22/03:00pm 26.6 E 9 14 1014.8 - 1.4 - - - - - - -
22/02:30pm 26.6 SE 8 12 1015.1 - 1.4 - - - - - - -
22/02:00pm 27.6 E 7 12 1015.2 - 1.4 - - - - - - -
22/01:30pm 26.3 ESE 7 11 1015.7 - 1.4 - - - - - - -
22/01:00pm 25.9 E 7 12 1016.1 - 1.4 - - - - - - -
22/12:30pm 25.4 E 6 11 1016.5 - 1.4 - - - - - - -
22/12:00pm 25.4 E 6 9 1016.9 - 1.4 - - - - - - -
22/11:30am 25.7 N 4 7 1017.6 - 1.4 - - - - - - -
22/11:00am 23.5 ESE 4 7 1018.3 - 1.4 - - - - - - -
22/10:30am 23.1 ENE 5 7 1018.6 - 0.0 - - - - - - -
22/10:00am 24.4 NE 3 5 1018.5 - 0.0 - - - - - - -
22/09:30am 24.2 WSW 3 4 1018.6 - 0.0 - - - - - - -
22/09:00am 23.4 WSW 2 5 1018.6 - 1.0 - - - - - - -
22/08:30am 22.4 WSW 4 6 1018.6 - 1.0 - - - - - - -
22/08:00am 21.4 WSW 4 6 1018.5 - 1.0 - - - - - - -
22/07:30am 20.5 W 2 5 1018.1 - 1.0 - - - - - - -
22/07:00am 19.9 W 5 7 1017.6 - 1.0 - - - - - - -
22/06:30am 19.6 WSW 5 7 1017.2 - 1.0 - - - - - - -
22/06:00am 19.6 WSW 4 7 1016.8 - 1.0 - - - - - - -
22/05:30am 19.9 CALM 0 2 1016.6 - 1.0 - - - - - - -
22/05:00am 19.9 WSW 4 6 1016.3 - 1.0 - - - - - - -
22/04:30am 20.2 SSW 2 5 1016.1 - 1.0 - - - - - - -
22/04:00am 20.3 CALM 0 4 1016.1 - 0.8 - - - - - - -
22/03:30am 20.3 CALM 0 0 1016.1 - 0.2 - - - - - - -
22/03:00am 20.3 CALM 0 0 1016.3 - 0.0 - - - - - - -
22/02:30am 20.3 CALM 0 0 1016.7 - 0.0 - - - - - - -
22/02:00am 20.3 CALM 0 0 1017.0 - 0.0 - - - - - - -
22/01:30am 20.5 CALM 0 0 1017.2 - 0.0 - - - - - - -
22/01:00am 20.7 CALM 0 0 1017.7 - 0.0 - - - - - - -
22/12:30am 21.2 CALM 0 0 1017.9 - 0.0 - - - - - - -
22/12:00am 21.2 CALM 0 0 1017.9 - 0.0 - - - - - - -
 
Date/Time
EST
Temp

°C
Wind Pressure Rain
since 9am
mm
Weather Cloud Vis
km
Sea
Height
m
Swell
Dir
 
Speed
knots
Gust
knots
hPa Trend Height
m
Period
s
Dir
21/11:30pm 21.3 CALM 0 0 1018.2 - 0.0 - - - - - - -
21/11:00pm 21.5 CALM 0 0 1018.5 - 0.0 - - - - - - -
21/10:30pm 21.8 SSE 3 4 1018.7 - 0.0 - - - - - - -
21/10:00pm 21.7 S 1 4 1019.0 - 0.0 - - - - - - -
21/09:30pm 21.7 SSE 4 6 1018.8 - 0.0 - - - - - - -
21/09:00pm 21.3 SSE 4 6 1018.5 - 0.0 - - - - - - -
21/08:30pm 21.7 SSE 4 5 1018.1 - 0.0 - - - - - - -
21/08:00pm 21.3 SE 4 5 1017.8 - 0.0 - - - - - - -
21/07:30pm 21.7 ESE 4 6 1017.5 - 0.0 - - - - - - -
21/07:00pm 22.5 ESE 3 5 1017.3 - 0.0 - - - - - - -
21/06:30pm 23.1 S 1 4 1017.1 - 0.0 - - - - - - -
21/06:00pm 23.8 SE 4 6 1016.7 - 0.0 - - - - - - -
21/05:30pm 24.6 SE 6 9 1016.7 - 0.0 - - - - - - -
21/05:00pm 25.0 SE 7 10 1016.6 - 0.0 - - - - - - -
21/04:30pm 25.3 SE 7 11 1016.6 - 0.0 - - - - - - -
21/04:00pm 26.0 ESE 8 11 1016.3 - 0.0 - - - - - - -
21/03:30pm 26.4 E 9 14 1016.1 - 0.0 - - - - - - -
21/03:00pm 26.6 E 8 12 1015.9 - 0.0 - - - - - - -
21/02:30pm 26.9 E 7 10 1016.1 - 0.0 - - - - - - -
21/02:00pm 27.7 E 7 13 1016.4 - 0.0 - - - - - - -
21/01:30pm 27.4 E 7 12 1016.6 - 0.0 - - - - - - -
21/01:00pm 27.4 E 8 12 1017.1 - 0.0 - - - - - - -
21/12:30pm 26.6 ENE 8 12 1017.6 - 0.0 - - - - - - -
21/12:00pm 27.0 E 7 12 1017.9 - 0.0 - - - - - - -
21/11:30am 26.5 E 8 13 1018.4 - 0.0 - - - - - - -
21/11:00am 26.4 NNE 2 5 1018.6 - 0.0 - - - - - - -
21/10:30am 25.7 ENE 6 10 1018.8 - 0.0 - - - - - - -
21/10:00am 24.7 ESE 7 11 1019.4 - 0.0 - - - - - - -
21/09:30am 24.8 S 2 5 1019.2 - 0.0 - - - - - - -
21/09:00am 23.0 SW 2 4 1019.2 - 0.0 - - - - - - -
21/08:30am 21.0 WSW 4 6 1019.1 - 0.0 - - - - - - -

Other Formats:

Comma delimited format used in spreadsheet applications
http://www.bom.gov.au/fwo/IDQ60701/IDQ60701.95292.axf

JavaScript Object Notation format (JSON) in row-major order
http://www.bom.gov.au/fwo/IDQ60701/IDQ60701.95292.json